Time;durP1;ratioP1;P1;durP2;ratioP2;P2;SDS_P1;SDS_P2;PMS_P1;PMS_P2;Temp;Humidity;BMP_temperature;BMP_pressure;BME280_temperature;BME280_humidity;BME280_pressure;Samples;Min_cycle;Max_cycle;Signal;HPM_P1;HPM_P2
2022/07/23 00:02:21;;;;;;;;;;;15.90;99.90;;;;;;5051162;28;19942;-81
2022/07/23 00:04:47;;;;;;;;;;;16.10;99.90;;;;;;5053936;28;20281;-81
2022/07/23 00:07:16;;;;;;;;;;;16.20;99.90;;;;;;5055359;28;20462;-81
2022/07/23 00:09:41;;;;;;;;;;;16.30;99.90;;;;;;5054003;28;19917;-81
2022/07/23 00:12:07;;;;;;;;;;;16.20;99.90;;;;;;5044704;28;20442;-82
2022/07/23 00:14:32;;;;;;;;;;;16.00;99.90;;;;;;5049980;28;19924;-81
2022/07/23 00:16:58;;;;;;;;;;;16.00;99.90;;;;;;5043939;28;19909;-81
2022/07/23 00:19:23;;;;;;;;;;;16.00;99.90;;;;;;5039285;28;19905;-81
2022/07/23 00:21:49;;;;;;;;;;;15.80;99.90;;;;;;5045280;28;19916;-81
2022/07/23 00:24:14;;;;;;;;;;;15.90;99.90;;;;;;5049838;28;19909;-82
2022/07/23 00:26:40;;;;;;;;;;;15.80;99.90;;;;;;5051209;28;19919;-82
2022/07/23 00:29:05;;;;;;;;;;;15.70;99.90;;;;;;5034065;28;19905;-82
2022/07/23 00:31:31;;;;;;;;;;;15.80;99.90;;;;;;5041225;28;19916;-82
2022/07/23 00:33:57;;;;;;;;;;;15.80;99.90;;;;;;5051026;28;19908;-82
2022/07/23 00:36:23;;;;;;;;;;;15.80;99.90;;;;;;5049872;28;19913;-82
2022/07/23 00:38:49;;;;;;;;;;;15.70;99.90;;;;;;5052481;28;20541;-82
2022/07/23 00:41:14;;;;;;;;;;;15.70;99.90;;;;;;5040895;28;19936;-82
2022/07/23 00:43:40;;;;;;;;;;;15.70;99.90;;;;;;5039048;28;20536;-82
2022/07/23 00:46:05;;;;;;;;;;;15.60;99.90;;;;;;5037306;28;19909;-81
2022/07/23 00:48:31;;;;;;;;;;;15.60;99.90;;;;;;5033827;28;19951;-82
2022/07/23 00:50:56;;;;;;;;;;;15.60;99.90;;;;;;5036562;28;19931;-81
2022/07/23 00:53:22;;;;;;;;;;;15.50;99.90;;;;;;5052162;28;19923;-81
2022/07/23 00:55:48;;;;;;;;;;;15.40;99.90;;;;;;5035563;28;19912;-81
2022/07/23 00:58:15;;;;;;;;;;;15.40;99.90;;;;;;5052330;28;19939;-82
2022/07/23 01:00:41;;;;;;;;;;;15.40;99.90;;;;;;5032964;28;20007;-82
2022/07/23 01:03:07;;;;;;;;;;;15.40;99.90;;;;;;5044253;28;20395;-81
2022/07/23 01:05:33;;;;;;;;;;;15.40;99.90;;;;;;5036826;28;20066;-81
2022/07/23 01:07:58;;;;;;;;;;;15.40;99.90;;;;;;5035198;28;19909;-81
2022/07/23 01:10:30;;;;;;;;;;;15.40;99.90;;;;;;5051761;28;20051;-81
2022/07/23 01:12:56;;;;;;;;;;;15.50;99.90;;;;;;5043940;28;19908;-81
2022/07/23 01:15:22;;;;;;;;;;;15.50;99.90;;;;;;5046638;28;19949;-81
2022/07/23 01:17:48;;;;;;;;;;;15.40;99.90;;;;;;5038393;28;19908;-81
2022/07/23 01:20:13;;;;;;;;;;;15.40;99.90;;;;;;5039043;28;19972;-81
2022/07/23 01:22:39;;;;;;;;;;;15.50;99.90;;;;;;5043590;28;19958;-81
2022/07/23 01:25:05;;;;;;;;;;;15.50;99.90;;;;;;5041752;28;19992;-81
2022/07/23 01:27:30;;;;;;;;;;;15.60;99.90;;;;;;5041605;28;19904;-81
2022/07/23 01:29:57;;;;;;;;;;;15.50;99.90;;;;;;5053597;28;20014;-82
2022/07/23 01:32:22;;;;;;;;;;;15.40;99.90;;;;;;5037560;28;19935;-81
2022/07/23 01:34:48;;;;;;;;;;;15.50;99.90;;;;;;5052912;28;19963;-81
2022/07/23 01:37:13;;;;;;;;;;;15.50;99.90;;;;;;5053815;28;19905;-81
2022/07/23 01:39:39;;;;;;;;;;;15.40;99.90;;;;;;5054506;28;19905;-81
2022/07/23 01:42:05;;;;;;;;;;;15.50;99.90;;;;;;5051087;28;19944;-81
2022/07/23 01:44:30;;;;;;;;;;;15.70;99.90;;;;;;5051981;28;19950;-81
2022/07/23 01:46:56;;;;;;;;;;;15.50;99.90;;;;;;5042265;28;20346;-81
2022/07/23 01:49:22;;;;;;;;;;;15.40;99.90;;;;;;5041681;28;20059;-81
2022/07/23 01:51:59;;;;;;;;;;;15.40;99.90;;;;;;5054418;28;20676;-81
2022/07/23 01:54:29;;;;;;;;;;;15.50;99.90;;;;;;5042125;28;19958;-82
2022/07/23 01:56:55;;;;;;;;;;;15.40;99.90;;;;;;5054953;28;19904;-81
2022/07/23 01:59:21;;;;;;;;;;;15.30;99.90;;;;;;5046046;28;19935;-81
2022/07/23 02:01:47;;;;;;;;;;;15.40;99.90;;;;;;5054063;28;19904;-82
2022/07/23 02:04:12;;;;;;;;;;;15.40;99.90;;;;;;5052092;28;19913;-81
2022/07/23 02:06:38;;;;;;;;;;;15.30;99.90;;;;;;5039575;28;19909;-81
2022/07/23 02:09:03;;;;;;;;;;;15.30;99.90;;;;;;5060517;28;19962;-81
2022/07/23 02:11:29;;;;;;;;;;;15.30;99.90;;;;;;5042995;28;20376;-81
2022/07/23 02:13:54;;;;;;;;;;;15.40;99.90;;;;;;5061712;28;19905;-81
2022/07/23 02:16:20;;;;;;;;;;;15.50;99.90;;;;;;5056384;28;19908;-81
2022/07/23 02:18:46;;;;;;;;;;;15.40;99.90;;;;;;5044804;28;19936;-81
2022/07/23 02:21:12;;;;;;;;;;;15.30;99.90;;;;;;5046364;28;19923;-82
2022/07/23 02:23:37;;;;;;;;;;;15.30;99.90;;;;;;5064410;28;20311;-82
2022/07/23 02:26:03;;;;;;;;;;;15.40;99.90;;;;;;5035748;28;19927;-82
2022/07/23 02:28:28;;;;;;;;;;;15.40;99.90;;;;;;5061654;28;19912;-81
2022/07/23 02:30:54;;;;;;;;;;;15.30;99.90;;;;;;5042484;28;19928;-82
2022/07/23 02:33:19;;;;;;;;;;;15.20;99.90;;;;;;5042187;28;19922;-82
2022/07/23 02:35:45;;;;;;;;;;;15.30;99.90;;;;;;5056982;28;19909;-82
2022/07/23 02:38:10;;;;;;;;;;;15.30;99.90;;;;;;5061904;28;19908;-82
2022/07/23 02:40:36;;;;;;;;;;;15.30;99.90;;;;;;5059497;28;19911;-82
2022/07/23 02:43:05;;;;;;;;;;;15.20;99.90;;;;;;5039978;28;19912;-81
2022/07/23 02:45:30;;;;;;;;;;;15.20;99.90;;;;;;5057026;28;19912;-82
2022/07/23 02:47:56;;;;;;;;;;;15.20;99.90;;;;;;5041852;28;20357;-82
2022/07/23 02:50:21;;;;;;;;;;;15.10;99.90;;;;;;5045790;28;19908;-81
2022/07/23 02:52:47;;;;;;;;;;;15.10;99.90;;;;;;5039798;28;20284;-81
2022/07/23 02:55:12;;;;;;;;;;;15.00;99.90;;;;;;5043312;28;19956;-81
2022/07/23 02:57:38;;;;;;;;;;;15.10;99.90;;;;;;5042734;28;19909;-81
2022/07/23 03:00:04;;;;;;;;;;;14.90;99.90;;;;;;5051206;28;20002;-81
2022/07/23 03:02:29;;;;;;;;;;;14.90;99.90;;;;;;5044792;28;19911;-81
2022/07/23 03:04:55;;;;;;;;;;;15.00;99.90;;;;;;5048685;28;20380;-81
2022/07/23 03:07:21;;;;;;;;;;;14.90;99.90;;;;;;5059611;28;19911;-81
2022/07/23 03:09:46;;;;;;;;;;;14.80;99.90;;;;;;5062639;28;20415;-81
2022/07/23 03:12:12;;;;;;;;;;;14.60;99.90;;;;;;5057666;28;19915;-81
2022/07/23 03:14:38;;;;;;;;;;;14.50;99.90;;;;;;5065616;28;20435;-81
2022/07/23 03:17:03;;;;;;;;;;;14.30;99.90;;;;;;5050117;28;19908;-81
2022/07/23 03:19:29;;;;;;;;;;;14.20;99.90;;;;;;5067337;28;19930;-81
2022/07/23 03:21:54;;;;;;;;;;;14.10;99.90;;;;;;5051191;28;19943;-81
2022/07/23 03:24:20;;;;;;;;;;;14.00;99.90;;;;;;5059780;28;19909;-81
2022/07/23 03:26:45;;;;;;;;;;;14.00;99.90;;;;;;5046315;28;19912;-81
2022/07/23 03:29:11;;;;;;;;;;;14.00;99.90;;;;;;5041324;28;20003;-81
2022/07/23 03:31:36;;;;;;;;;;;14.00;99.90;;;;;;5063544;28;20275;-81
2022/07/23 03:34:02;;;;;;;;;;;14.00;99.90;;;;;;5050514;28;19909;-81
2022/07/23 03:36:27;;;;;;;;;;;14.00;99.90;;;;;;5047595;28;19904;-81
2022/07/23 03:38:53;;;;;;;;;;;13.90;99.90;;;;;;5062361;28;19905;-81
2022/07/23 03:41:19;;;;;;;;;;;14.00;99.90;;;;;;5061285;28;19905;-81
2022/07/23 03:43:44;;;;;;;;;;;13.90;99.90;;;;;;5054308;28;19905;-81
2022/07/23 03:46:10;;;;;;;;;;;13.80;99.90;;;;;;5062902;28;19908;-81
2022/07/23 03:48:35;;;;;;;;;;;13.80;99.90;;;;;;5045007;28;19967;-81
2022/07/23 03:51:01;;;;;;;;;;;13.70;99.90;;;;;;5043681;28;19991;-81
2022/07/23 03:53:26;;;;;;;;;;;13.60;99.90;;;;;;5041876;28;19909;-81
2022/07/23 03:55:52;;;;;;;;;;;13.60;99.90;;;;;;5047014;28;20403;-81
2022/07/23 03:58:17;;;;;;;;;;;13.60;99.90;;;;;;5045845;28;19909;-81
2022/07/23 04:00:43;;;;;;;;;;;13.50;99.90;;;;;;5063993;28;19905;-81
2022/07/23 04:03:08;;;;;;;;;;;13.60;99.90;;;;;;5040674;28;19909;-81
2022/07/23 04:05:34;;;;;;;;;;;13.70;99.90;;;;;;5057730;28;19908;-81
2022/07/23 04:07:59;;;;;;;;;;;13.70;99.90;;;;;;5043869;28;19927;-81
2022/07/23 04:10:25;;;;;;;;;;;13.70;99.90;;;;;;5060552;28;19912;-81
2022/07/23 04:12:51;;;;;;;;;;;13.80;99.90;;;;;;5047139;28;19905;-82
2022/07/23 04:15:16;;;;;;;;;;;14.00;99.90;;;;;;5052336;28;19913;-81
2022/07/23 04:17:43;;;;;;;;;;;14.10;99.90;;;;;;5048591;28;19904;-81
2022/07/23 04:20:09;;;;;;;;;;;14.10;99.90;;;;;;5048259;28;19912;-81
2022/07/23 04:22:35;;;;;;;;;;;14.30;99.90;;;;;;5060202;28;19931;-81
2022/07/23 04:25:00;;;;;;;;;;;14.40;99.90;;;;;;5042394;28;19904;-81
2022/07/23 04:27:26;;;;;;;;;;;14.40;99.90;;;;;;5056710;28;19908;-81
2022/07/23 04:29:51;;;;;;;;;;;14.50;99.90;;;;;;5040537;28;19932;-81
2022/07/23 04:32:17;;;;;;;;;;;14.60;99.90;;;;;;5035897;28;19928;-81
2022/07/23 04:34:42;;;;;;;;;;;14.70;99.90;;;;;;5043365;28;19919;-81
2022/07/23 04:37:08;;;;;;;;;;;14.70;99.90;;;;;;5057125;28;19905;-81
2022/07/23 04:39:33;;;;;;;;;;;14.80;99.90;;;;;;5055776;28;19908;-81
2022/07/23 04:41:59;;;;;;;;;;;14.80;99.90;;;;;;5057495;28;19908;-81
2022/07/23 04:44:24;;;;;;;;;;;15.00;99.90;;;;;;5063063;28;19906;-81
2022/07/23 04:46:50;;;;;;;;;;;15.10;99.90;;;;;;5051096;28;19964;-80
2022/07/23 04:49:15;;;;;;;;;;;15.30;99.90;;;;;;5036724;28;19928;-81
2022/07/23 04:51:41;;;;;;;;;;;15.40;99.90;;;;;;5060341;28;19908;-81
2022/07/23 04:54:07;;;;;;;;;;;15.50;99.90;;;;;;5042846;28;20288;-81
2022/07/23 04:56:32;;;;;;;;;;;15.40;99.90;;;;;;5064556;28;19909;-81
2022/07/23 04:58:58;;;;;;;;;;;15.40;99.90;;;;;;5047964;28;19908;-81
2022/07/23 05:01:23;;;;;;;;;;;15.30;99.90;;;;;;5056513;28;19909;-80
2022/07/23 05:03:49;;;;;;;;;;;15.20;99.90;;;;;;5056862;28;19905;-81
2022/07/23 05:06:15;;;;;;;;;;;15.10;99.90;;;;;;5047830;28;19904;-81
2022/07/23 05:08:40;;;;;;;;;;;15.10;99.90;;;;;;5046793;28;19912;-81
2022/07/23 05:11:06;;;;;;;;;;;15.10;99.90;;;;;;5054254;28;20345;-81
2022/07/23 05:13:31;;;;;;;;;;;15.10;99.90;;;;;;5054117;28;19912;-81
2022/07/23 05:15:57;;;;;;;;;;;15.20;99.90;;;;;;5055663;28;19912;-81
2022/07/23 05:18:22;;;;;;;;;;;15.20;99.90;;;;;;5055380;28;19965;-81
2022/07/23 05:20:48;;;;;;;;;;;15.10;99.90;;;;;;5055932;28;19947;-81
2022/07/23 05:23:13;;;;;;;;;;;15.20;99.90;;;;;;5044401;28;19909;-82
2022/07/23 05:25:39;;;;;;;;;;;15.30;99.90;;;;;;5039645;28;19909;-81
2022/07/23 05:28:05;;;;;;;;;;;15.30;99.90;;;;;;5054554;28;20300;-81
2022/07/23 05:30:30;;;;;;;;;;;15.30;99.90;;;;;;5039253;28;19909;-81
2022/07/23 05:32:56;;;;;;;;;;;15.50;99.90;;;;;;5048185;28;19904;-80
2022/07/23 05:35:21;;;;;;;;;;;15.30;99.90;;;;;;5055381;28;19913;-81
2022/07/23 05:37:47;;;;;;;;;;;15.30;99.90;;;;;;5045059;28;19936;-81
2022/07/23 05:40:12;;;;;;;;;;;15.30;99.90;;;;;;5052556;28;19920;-81
2022/07/23 05:42:39;;;;;;;;;;;15.30;99.90;;;;;;5054089;28;20288;-81
2022/07/23 05:45:05;;;;;;;;;;;15.40;99.90;;;;;;5045296;28;20385;-81
2022/07/23 05:47:41;;;;;;;;;;;15.30;99.90;;;;;;5044874;28;20000;-81
2022/07/23 05:50:06;;;;;;;;;;;15.50;99.90;;;;;;5043803;28;20006;-81
2022/07/23 05:52:32;;;;;;;;;;;15.60;99.90;;;;;;5059221;28;19908;-81
2022/07/23 05:54:57;;;;;;;;;;;15.60;99.90;;;;;;5053263;28;19913;-81
2022/07/23 05:57:23;;;;;;;;;;;15.70;99.90;;;;;;5052654;28;19909;-82
2022/07/23 05:59:48;;;;;;;;;;;15.70;99.90;;;;;;5038074;28;20276;-81
2022/07/23 06:02:14;;;;;;;;;;;15.70;99.90;;;;;;5042883;28;19939;-81
2022/07/23 06:04:39;;;;;;;;;;;15.80;99.90;;;;;;5039711;28;19911;-81
2022/07/23 06:07:05;;;;;;;;;;;16.00;99.90;;;;;;5040517;28;19904;-81
2022/07/23 06:09:30;;;;;;;;;;;16.10;99.90;;;;;;5054115;28;19976;-81
2022/07/23 06:11:56;;;;;;;;;;;16.10;99.90;;;;;;5052864;28;20315;-81
2022/07/23 06:14:21;;;;;;;;;;;16.30;99.90;;;;;;5051483;28;20260;-81
2022/07/23 06:16:47;;;;;;;;;;;16.20;99.90;;;;;;5050809;28;19908;-81
2022/07/23 06:19:12;;;;;;;;;;;16.20;99.90;;;;;;5046768;28;19916;-81
2022/07/23 06:21:38;;;;;;;;;;;16.40;99.90;;;;;;5054039;28;19912;-81
2022/07/23 06:24:03;;;;;;;;;;;16.60;99.90;;;;;;5043615;28;19905;-81
2022/07/23 06:26:29;;;;;;;;;;;16.60;99.90;;;;;;5054498;28;19909;-81
2022/07/23 06:28:54;;;;;;;;;;;16.50;99.90;;;;;;5038541;28;19948;-81
2022/07/23 06:31:20;;;;;;;;;;;16.60;99.90;;;;;;5055034;28;20060;-81
2022/07/23 06:33:45;;;;;;;;;;;16.80;99.90;;;;;;5045073;28;19904;-81
2022/07/23 06:36:11;;;;;;;;;;;17.00;99.90;;;;;;5042920;28;19924;-81
2022/07/23 06:38:37;;;;;;;;;;;16.90;99.90;;;;;;5052766;28;19905;-81
2022/07/23 06:41:02;;;;;;;;;;;17.10;99.90;;;;;;5052198;28;19913;-81
2022/07/23 06:43:29;;;;;;;;;;;17.20;99.90;;;;;;5028680;28;19944;-81
2022/07/23 06:45:55;;;;;;;;;;;17.30;99.90;;;;;;5045078;28;20258;-81
2022/07/23 06:48:22;;;;;;;;;;;17.20;99.90;;;;;;5038986;28;19954;-81
2022/07/23 06:50:47;;;;;;;;;;;17.20;99.90;;;;;;5040706;28;20288;-81
2022/07/23 06:53:13;;;;;;;;;;;17.40;99.90;;;;;;5041840;28;19916;-81
2022/07/23 06:55:39;;;;;;;;;;;17.60;99.90;;;;;;5052630;28;19930;-81
2022/07/23 06:58:05;;;;;;;;;;;17.70;99.90;;;;;;5035920;28;19905;-81
2022/07/23 07:00:32;;;;;;;;;;;17.70;99.90;;;;;;5055735;28;20051;-81
2022/07/23 07:02:58;;;;;;;;;;;17.70;99.90;;;;;;5047556;28;19912;-81
2022/07/23 07:05:25;;;;;;;;;;;17.70;99.90;;;;;;5037487;28;20294;-81
2022/07/23 07:07:50;;;;;;;;;;;17.90;99.90;;;;;;5032755;28;19909;-81
2022/07/23 07:10:17;;;;;;;;;;;18.00;99.90;;;;;;5051340;28;19921;-81
2022/07/23 07:12:43;;;;;;;;;;;18.10;99.90;;;;;;5050804;28;19916;-81
2022/07/23 07:15:08;;;;;;;;;;;18.20;99.90;;;;;;5052304;28;19971;-81
2022/07/23 07:17:34;;;;;;;;;;;18.40;99.90;;;;;;5050669;28;19911;-81
2022/07/23 07:19:59;;;;;;;;;;;18.40;99.90;;;;;;5034461;28;20409;-81
2022/07/23 07:22:25;;;;;;;;;;;18.60;99.90;;;;;;5038539;28;20671;-81
2022/07/23 07:24:50;;;;;;;;;;;18.80;99.90;;;;;;5051211;28;19913;-81
2022/07/23 07:27:16;;;;;;;;;;;19.10;99.90;;;;;;5050668;28;19927;-81
2022/07/23 07:29:41;;;;;;;;;;;19.00;99.90;;;;;;5050050;28;19963;-81
2022/07/23 07:32:07;;;;;;;;;;;18.90;99.90;;;;;;5052051;28;19912;-81
2022/07/23 07:34:32;;;;;;;;;;;19.00;99.90;;;;;;5037040;28;19917;-81
2022/07/23 07:36:58;;;;;;;;;;;19.00;99.90;;;;;;5039888;28;19905;-81
2022/07/23 07:39:23;;;;;;;;;;;19.00;99.90;;;;;;5054110;28;19999;-81
2022/07/23 07:41:49;;;;;;;;;;;18.80;99.90;;;;;;5051640;28;19909;-81
2022/07/23 07:44:14;;;;;;;;;;;18.60;99.90;;;;;;5037926;28;20482;-81
2022/07/23 07:46:40;;;;;;;;;;;18.50;99.90;;;;;;5039571;28;19980;-81
2022/07/23 07:49:05;;;;;;;;;;;18.50;99.90;;;;;;5051533;28;19912;-81
2022/07/23 07:51:32;;;;;;;;;;;18.30;99.90;;;;;;5052449;28;20017;-81
2022/07/23 07:53:58;;;;;;;;;;;18.40;99.90;;;;;;5051470;28;20292;-81
2022/07/23 07:56:23;;;;;;;;;;;18.90;99.90;;;;;;5051157;28;19909;-80
2022/07/23 07:58:49;;;;;;;;;;;19.60;99.90;;;;;;5044539;28;20139;-81
2022/07/23 08:01:14;;;;;;;;;;;20.30;99.90;;;;;;5056696;28;19963;-82
2022/07/23 08:03:40;;;;;;;;;;;20.50;99.90;;;;;;5038621;28;20468;-81
2022/07/23 08:06:05;;;;;;;;;;;20.40;99.90;;;;;;5056041;28;19904;-81
2022/07/23 08:08:31;;;;;;;;;;;20.40;99.90;;;;;;5054202;28;19912;-81
2022/07/23 08:10:56;;;;;;;;;;;20.30;99.90;;;;;;5056210;28;19913;-81
2022/07/23 08:13:22;;;;;;;;;;;20.00;99.90;;;;;;5053303;28;19909;-80
2022/07/23 08:15:48;;;;;;;;;;;20.00;99.90;;;;;;5043134;28;19962;-80
2022/07/23 08:18:13;;;;;;;;;;;19.90;99.90;;;;;;5035617;28;19988;-80
2022/07/23 08:20:39;;;;;;;;;;;19.70;99.90;;;;;;5056621;28;19955;-80
2022/07/23 08:23:06;;;;;;;;;;;19.50;99.90;;;;;;5054074;28;20077;-80
2022/07/23 08:25:33;;;;;;;;;;;19.40;99.90;;;;;;5036945;28;19905;-80
2022/07/23 08:27:59;;;;;;;;;;;19.70;99.90;;;;;;5037812;28;19996;-80
2022/07/23 08:30:25;;;;;;;;;;;20.50;99.90;;;;;;5055931;28;19913;-80
2022/07/23 08:32:52;;;;;;;;;;;21.00;99.90;;;;;;5056046;28;19970;-80
2022/07/23 08:35:22;;;;;;;;;;;22.00;99.90;;;;;;5055595;28;19916;-81
2022/07/23 08:37:48;;;;;;;;;;;22.80;99.90;;;;;;5052683;28;19908;-80
2022/07/23 08:40:13;;;;;;;;;;;22.60;99.90;;;;;;5051632;28;19996;-81
2022/07/23 08:42:39;;;;;;;;;;;22.10;99.90;;;;;;5041978;28;19952;-82
2022/07/23 08:45:06;;;;;;;;;;;21.90;99.90;;;;;;5043235;28;20400;-81
2022/07/23 08:47:32;;;;;;;;;;;21.90;99.90;;;;;;5052852;28;19951;-81
2022/07/23 08:49:58;;;;;;;;;;;21.90;99.90;;;;;;5053586;28;19909;-81
2022/07/23 08:52:24;;;;;;;;;;;21.90;99.90;;;;;;5048484;28;20261;-81
2022/07/23 08:54:49;;;;;;;;;;;21.90;99.90;;;;;;5044135;28;20019;-82
2022/07/23 08:57:15;;;;;;;;;;;22.50;99.90;;;;;;5053935;28;19905;-81
2022/07/23 08:59:41;;;;;;;;;;;22.70;99.90;;;;;;4983462;23;20448;-64
2022/07/23 09:02:06;;;;;;;;;;;22.80;99.90;;;;;;4959378;28;19910;-64
2022/07/23 09:04:32;;;;;;;;;;;22.70;99.90;;;;;;4954594;28;19951;-64
2022/07/23 09:06:57;;;;;;;;;;;22.40;99.90;;;;;;4981738;28;20389;-64
2022/07/23 09:09:25;;;;;;;;;;;22.10;99.90;;;;;;4980819;28;19997;-64
2022/07/23 09:12:04;;;;;;;;;;;22.00;99.90;;;;;;4971262;28;19910;-64
2022/07/23 09:14:43;;;;;;;;;;;21.80;99.90;;;;;;4992967;28;20338;-63
2022/07/23 09:17:16;;;;;;;;;;;21.60;99.90;;;;;;4978426;28;19921;-63
2022/07/23 09:19:42;;;;;;;;;;;21.60;99.90;;;;;;4975391;28;20354;-63
2022/07/23 09:22:17;;;;;;;;;;;21.80;99.90;;;;;;4995637;28;20004;-63
2022/07/23 09:25:01;;;;;;;;;;;22.70;99.90;;;;;;4994043;28;19944;-63
2022/07/23 09:27:44;;;;;;;;;;;23.20;99.90;;;;;;4988074;28;19905;-63
2022/07/23 09:30:10;;;;;;;;;;;23.70;99.90;;;;;;4985730;28;20585;-64
2022/07/23 09:32:36;;;;;;;;;;;23.90;99.90;;;;;;4986020;28;19909;-64
2022/07/23 09:35:01;;;;;;;;;;;24.50;99.90;;;;;;4976600;28;19964;-63
2022/07/23 09:37:27;;;;;;;;;;;24.50;99.90;;;;;;4980583;28;19966;-63
2022/07/23 09:40:02;;;;;;;;;;;24.50;99.90;;;;;;4970025;28;19906;-63
2022/07/23 09:42:28;;;;;;;;;;;24.20;99.90;;;;;;4974087;28;20001;-64
2022/07/23 09:44:55;;;;;;;;;;;24.10;99.90;;;;;;4981711;28;20593;-64
2022/07/23 09:47:22;;;;;;;;;;;23.60;99.90;;;;;;4975892;28;20347;-64
2022/07/23 09:50:08;;;;;;;;;;;23.50;99.90;;;;;;4977578;28;19984;-64
2022/07/23 09:52:44;;;;;;;;;;;24.00;99.90;;;;;;4968667;28;20004;-63
2022/07/23 09:55:09;;;;;;;;;;;24.10;99.90;;;;;;4983640;28;19916;-63
2022/07/23 09:57:35;;;;;;;;;;;23.70;99.90;;;;;;4962243;28;19909;-63
2022/07/23 10:00:03;;;;;;;;;;;23.00;99.90;;;;;;4982650;28;19957;-63
2022/07/23 10:02:31;;;;;;;;;;;22.70;99.90;;;;;;4986942;28;20600;-63
2022/07/23 10:04:56;;;;;;;;;;;22.80;99.90;;;;;;4986957;28;19905;-63
2022/07/23 10:07:23;;;;;;;;;;;23.30;99.90;;;;;;5000318;28;19952;-63
2022/07/23 10:09:52;;;;;;;;;;;23.60;99.90;;;;;;4983738;28;19909;-64
2022/07/23 10:15:04;;;;;;;;;;;24.70;99.90;;;;;;4984905;28;20384;-64
2022/07/23 10:17:30;;;;;;;;;;;24.40;99.90;;;;;;4984891;28;19914;-64
2022/07/23 10:19:55;;;;;;;;;;;24.90;99.90;;;;;;4976623;28;20396;-64
2022/07/23 10:22:23;;;;;;;;;;;25.20;99.90;;;;;;4987646;28;19948;-64
2022/07/23 10:25:07;;;;;;;;;;;25.50;98.20;;;;;;4984121;28;19914;-64
2022/07/23 10:27:51;;;;;;;;;;;25.50;97.70;;;;;;4984740;28;19913;-64
2022/07/23 10:30:20;;;;;;;;;;;26.00;97.00;;;;;;4985696;28;19918;-64
2022/07/23 10:33:04;;;;;;;;;;;26.90;94.20;;;;;;4986134;28;20001;-64
2022/07/23 10:35:38;;;;;;;;;;;26.40;95.50;;;;;;4984929;28;19926;-64
2022/07/23 10:38:10;;;;;;;;;;;25.90;97.30;;;;;;4985501;28;19905;-65
2022/07/23 10:40:36;;;;;;;;;;;25.50;96.10;;;;;;4985249;28;19938;-64
2022/07/23 10:43:01;;;;;;;;;;;25.90;96.80;;;;;;4982616;28;19910;-64
2022/07/23 10:45:32;;;;;;;;;;;25.60;96.30;;;;;;4981873;28;20397;-64
2022/07/23 10:48:15;;;;;;;;;;;25.60;96.10;;;;;;4983443;28;19909;-64
2022/07/23 10:50:41;;;;;;;;;;;26.10;96.50;;;;;;4977228;28;19909;-64
2022/07/23 10:53:08;;;;;;;;;;;26.10;96.60;;;;;;4979588;28;20418;-64
2022/07/23 10:55:33;;;;;;;;;;;25.50;98.00;;;;;;4982142;28;20336;-64
2022/07/23 10:57:59;;;;;;;;;;;25.70;97.50;;;;;;4986438;28;19943;-64
2022/07/23 11:00:25;;;;;;;;;;;26.40;94.60;;;;;;4981294;28;20435;-64
2022/07/23 11:02:55;;;;;;;;;;;27.00;94.50;;;;;;4983688;28;19940;-64
2022/07/23 11:05:25;;;;;;;;;;;27.90;91.80;;;;;;4995788;28;19905;-64
2022/07/23 11:08:07;;;;;;;;;;;28.70;92.10;;;;;;4980926;28;20454;-64
2022/07/23 11:10:33;;;;;;;;;;;28.40;90.90;;;;;;4978077;28;19912;-64
2022/07/23 11:13:18;;;;;;;;;;;28.00;90.40;;;;;;4975935;28;19917;-64
2022/07/23 11:16:10;;;;;;;;;;;28.10;91.30;;;;;;4976917;28;19910;-64
2022/07/23 11:18:39;;;;;;;;;;;28.30;90.20;;;;;;4981380;28;19910;-63
2022/07/23 11:21:29;;;;;;;;;;;28.20;88.80;;;;;;4976027;28;20381;-62
2022/07/23 11:24:06;;;;;;;;;;;27.90;90.80;;;;;;4978581;28;19905;-62
2022/07/23 11:26:38;;;;;;;;;;;28.00;87.90;;;;;;4983940;28;20365;-62
2022/07/23 11:29:22;;;;;;;;;;;28.40;86.70;;;;;;4981243;28;19926;-62
2022/07/23 11:31:55;;;;;;;;;;;29.30;85.10;;;;;;4974206;28;20019;-63
2022/07/23 11:34:40;;;;;;;;;;;29.90;83.80;;;;;;4967117;28;19910;-62
2022/07/23 11:37:07;;;;;;;;;;;30.20;82.10;;;;;;4989642;28;19906;-62
2022/07/23 11:39:33;;;;;;;;;;;29.90;83.00;;;;;;4987886;28;19906;-62
2022/07/23 11:41:59;;;;;;;;;;;30.00;82.00;;;;;;4985671;28;20004;-61
2022/07/23 11:44:25;;;;;;;;;;;29.20;83.40;;;;;;4975456;28;19913;-61
2022/07/23 11:47:01;;;;;;;;;;;28.70;83.30;;;;;;4975047;28;20629;-62
2022/07/23 11:49:27;;;;;;;;;;;28.60;82.80;;;;;;4986908;28;19906;-61
2022/07/23 11:52:12;;;;;;;;;;;29.00;83.40;;;;;;4988870;28;19917;-61
2022/07/23 11:54:48;;;;;;;;;;;29.30;81.00;;;;;;4988987;28;20008;-61
2022/07/23 11:57:14;;;;;;;;;;;29.60;79.00;;;;;;4966162;28;19910;-61
2022/07/23 11:59:40;;;;;;;;;;;29.10;80.40;;;;;;4967640;28;20407;-63
2022/07/23 12:02:06;;;;;;;;;;;29.10;84.50;;;;;;4989268;28;19906;-64
2022/07/23 12:04:39;;;;;;;;;;;29.70;80.70;;;;;;4987361;28;19913;-62
2022/07/23 12:07:05;;;;;;;;;;;29.90;79.70;;;;;;4986492;28;20585;-61
2022/07/23 12:09:30;;;;;;;;;;;29.10;81.70;;;;;;4982506;28;19956;-61
2022/07/23 12:11:57;;;;;;;;;;;29.00;79.80;;;;;;4967809;28;19909;-62
2022/07/23 12:14:22;;;;;;;;;;;29.30;78.40;;;;;;4991631;28;19984;-62
2022/07/23 12:17:06;;;;;;;;;;;29.80;79.60;;;;;;4975445;28;19964;-62
2022/07/23 12:19:31;;;;;;;;;;;30.40;79.70;;;;;;4972185;28;19914;-62
2022/07/23 12:21:57;;;;;;;;;;;31.60;75.70;;;;;;4981407;28;19924;-63
2022/07/23 12:24:23;;;;;;;;;;;31.70;74.40;;;;;;4987976;28;19910;-63
2022/07/23 12:27:07;;;;;;;;;;;32.00;73.80;;;;;;4987781;28;19937;-63
2022/07/23 12:29:36;;;;;;;;;;;32.30;72.30;;;;;;4986700;28;19914;-63
2022/07/23 12:32:01;;;;;;;;;;;32.10;70.80;;;;;;4986538;28;20428;-63
2022/07/23 12:34:27;;;;;;;;;;;31.10;72.60;;;;;;4985511;28;19913;-63
2022/07/23 12:36:52;;;;;;;;;;;31.40;72.40;;;;;;4972034;28;19924;-64
2022/07/23 12:39:33;;;;;;;;;;;31.90;71.50;;;;;;4984534;28;19929;-64
2022/07/23 12:41:59;;;;;;;;;;;32.40;70.60;;;;;;4984975;28;20605;-63
2022/07/23 12:44:24;;;;;;;;;;;32.30;71.20;;;;;;4986173;28;19928;-63
2022/07/23 12:46:51;;;;;;;;;;;32.30;70.90;;;;;;4964439;28;20261;-63
2022/07/23 12:49:26;;;;;;;;;;;31.90;70.40;;;;;;4985409;28;20129;-63
2022/07/23 12:51:52;;;;;;;;;;;31.90;70.60;;;;;;4966523;28;19910;-64
2022/07/23 12:54:18;;;;;;;;;;;32.80;69.60;;;;;;4986253;28;19920;-63
2022/07/23 12:56:46;;;;;;;;;;;33.30;67.50;;;;;;4985551;28;19910;-63
2022/07/23 12:59:16;;;;;;;;;;;33.50;66.70;;;;;;4980415;28;19921;-64
2022/07/23 13:01:43;;;;;;;;;;;32.90;67.50;;;;;;4987389;28;19906;-64
2022/07/23 13:04:09;;;;;;;;;;;33.20;67.60;;;;;;4989172;28;19913;-64
2022/07/23 13:06:35;;;;;;;;;;;33.10;67.70;;;;;;4992270;28;19952;-63
2022/07/23 13:09:02;;;;;;;;;;;32.30;66.70;;;;;;4985512;28;19910;-63
2022/07/23 13:11:27;;;;;;;;;;;32.50;67.20;;;;;;4983388;28;19956;-63
2022/07/23 13:13:53;;;;;;;;;;;33.40;68.30;;;;;;4971006;28;20365;-63
2022/07/23 13:16:18;;;;;;;;;;;33.80;65.40;;;;;;4984191;28;19913;-64
2022/07/23 13:18:44;;;;;;;;;;;33.40;66.50;;;;;;4983790;28;19941;-63
2022/07/23 13:21:10;;;;;;;;;;;34.00;64.80;;;;;;4972313;28;19912;-63
2022/07/23 13:23:35;;;;;;;;;;;33.50;64.90;;;;;;4982859;28;20281;-64
2022/07/23 13:26:01;;;;;;;;;;;31.90;67.90;;;;;;4982688;28;19921;-64
2022/07/23 13:28:27;;;;;;;;;;;31.20;67.50;;;;;;4962536;28;19918;-64
2022/07/23 13:30:53;;;;;;;;;;;31.40;69.00;;;;;;4969831;28;19910;-64
2022/07/23 13:33:19;;;;;;;;;;;32.30;68.80;;;;;;4982297;28;20507;-63
2022/07/23 13:35:45;;;;;;;;;;;31.70;68.70;;;;;;4986448;28;19918;-63
2022/07/23 13:38:11;;;;;;;;;;;31.50;67.80;;;;;;4970744;28;19916;-63
2022/07/23 13:40:42;;;;;;;;;;;31.50;67.70;;;;;;4968307;28;19906;-63
2022/07/23 13:43:14;;;;;;;;;;;32.00;66.30;;;;;;4994759;28;19909;-64
2022/07/23 13:45:41;;;;;;;;;;;33.20;64.40;;;;;;4984945;28;20376;-64
2022/07/23 13:48:08;;;;;;;;;;;33.10;65.00;;;;;;4984703;28;19912;-64
2022/07/23 13:50:33;;;;;;;;;;;34.10;65.60;;;;;;4999032;28;19914;-64
2022/07/23 13:53:06;;;;;;;;;;;34.30;64.00;;;;;;4977514;28;19972;-64
2022/07/23 13:55:32;;;;;;;;;;;34.10;64.40;;;;;;4974983;28;19922;-64
2022/07/23 13:57:58;;;;;;;;;;;33.80;63.10;;;;;;4975446;28;19921;-64
2022/07/23 14:00:23;;;;;;;;;;;34.80;63.20;;;;;;4985744;28;20067;-64
2022/07/23 14:02:49;;;;;;;;;;;32.60;65.30;;;;;;4985017;28;19905;-64
2022/07/23 14:05:15;;;;;;;;;;;32.60;66.20;;;;;;4986053;28;19988;-63
2022/07/23 14:07:42;;;;;;;;;;;34.00;63.10;;;;;;4983823;28;19917;-64
2022/07/23 14:10:08;;;;;;;;;;;34.60;63.90;;;;;;4987041;28;19906;-64
2022/07/23 14:12:34;;;;;;;;;;;34.50;62.80;;;;;;4988617;28;20412;-65
2022/07/23 14:15:00;;;;;;;;;;;33.60;61.40;;;;;;4997950;28;19996;-63
2022/07/23 14:17:26;;;;;;;;;;;31.40;64.70;;;;;;4977008;28;19910;-63
2022/07/23 14:19:51;;;;;;;;;;;31.90;65.50;;;;;;4982448;28;19941;-64